Time;durP1;ratioP1;P1;durP2;ratioP2;P2;SDS_P1;SDS_P2;PMS_P1;PMS_P2;Temp;Humidity;BMP_temperature;BMP_pressure;BME280_temperature;BME280_humidity;BME280_pressure;Samples;Min_cycle;Max_cycle;Signal;HPM_P1;HPM_P2
2021/06/06 00:02:15;;;;;;;;;;;;;;;20.49;68.51;99792.59;4313233;33;33874;-90
2021/06/06 00:04:48;;;;;;;;;;;;;;;20.59;68.25;99790.84;4304413;33;34021;-96
2021/06/06 00:07:21;;;;;;;;;;;;;;;20.08;68.51;99779.91;4315931;33;34759;-90
2021/06/06 00:09:53;;;;;;;;;;;;;;;20.22;68.34;99785.88;4315332;33;34469;-95
2021/06/06 00:12:27;;;;;;;;;;;;;;;20.30;67.81;99795.63;4314289;33;35098;-88
2021/06/06 00:15:00;;;;;;;;;;;;;;;20.08;68.15;99798.28;4302818;33;33336;-89
2021/06/06 00:17:33;;;;;;;;;;;;;;;19.98;68.75;99796.19;4314604;33;33668;-89
2021/06/06 00:20:07;;;;;;;;;;;;;;;20.43;67.05;99794.44;4320341;33;33797;-96
2021/06/06 00:23:00;;;;;;;;;;;;;;;20.22;68.04;99796.84;4300300;33;33240;-96
2021/06/06 00:25:47;;;;;;;;;;;;;;;20.08;68.20;99793.63;4290561;33;33080;-96
2021/06/06 00:28:25;;;;;;;;;;;;;;;20.25;67.82;99790.03;4294272;33;35026;-96
2021/06/06 00:31:14;;;;;;;;;;;;;;;20.19;67.99;99788.31;4312209;33;33932;-90
2021/06/06 00:33:47;;;;;;;;;;;;;;;20.43;67.23;99791.69;4302270;33;35501;-96
2021/06/06 00:36:35;;;;;;;;;;;;;;;20.18;67.63;99792.97;4303374;33;33850;-90
2021/06/06 00:39:08;;;;;;;;;;;;;;;20.33;67.46;99786.03;4302863;33;34034;-96
2021/06/06 00:41:56;;;;;;;;;;;;;;;20.09;67.50;99784.31;4315936;33;34478;-96
2021/06/06 00:44:44;;;;;;;;;;;;;;;20.27;66.74;99782.41;4318343;33;32680;-90
2021/06/06 00:47:17;;;;;;;;;;;;;;;20.34;66.72;99768.50;4309512;33;33187;-89
2021/06/06 00:49:52;;;;;;;;;;;;;;;20.28;67.18;99768.44;4311744;33;33876;-96
2021/06/06 00:52:41;;;;;;;;;;;;;;;20.23;67.08;99764.78;4309623;33;33757;-96
2021/06/06 00:55:36;;;;;;;;;;;;;;;20.49;66.33;99762.41;4280882;33;35066;-96
2021/06/06 00:58:39;;;;;;;;;;;;;;;20.61;66.04;99768.62;4296516;33;33135;-90
2021/06/06 01:01:14;;;;;;;;;;;;;;;20.72;65.21;99766.88;4293043;33;33581;-90
2021/06/06 01:03:50;;;;;;;;;;;;;;;20.55;65.57;99764.97;4292727;33;34033;-90
2021/06/06 01:06:31;;;;;;;;;;;;;;;20.48;65.96;99756.09;4279462;33;33574;-91
2021/06/06 01:09:06;;;;;;;;;;;;;;;20.44;66.19;99760.44;4276887;33;33210;-91
2021/06/06 01:11:41;;;;;;;;;;;;;;;20.64;65.82;99760.72;4263216;33;35249;-91
2021/06/06 01:14:24;;;;;;;;;;;;;;;20.32;66.58;99760.53;4264714;33;36164;-91
2021/06/06 01:17:02;;;;;;;;;;;;;;;20.69;65.22;99756.38;4286428;33;34769;-90
2021/06/06 01:19:42;;;;;;;;;;;;;;;20.66;65.62;99762.38;4292478;33;33203;-89
2021/06/06 01:22:24;;;;;;;;;;;;;;;20.51;66.42;99754.75;4292689;33;35107;-89
2021/06/06 01:24:59;;;;;;;;;;;;;;;20.57;66.09;99760.06;4291969;33;33849;-89
2021/06/06 01:27:33;;;;;;;;;;;;;;;20.46;66.88;99763.72;4292393;33;34393;-90
2021/06/06 01:30:10;;;;;;;;;;;;;;;20.50;66.70;99759.41;4292321;33;32963;-96
2021/06/06 01:32:54;;;;;;;;;;;;;;;20.58;66.50;99761.75;4299353;33;35458;-89
2021/06/06 01:36:34;;;;;;;;;;;;;;;20.54;66.52;99759.72;4207680;33;36375;-95
2021/06/06 01:39:35;;;;;;;;;;;;;;;20.54;66.19;99755.09;4297271;33;32261;-96
2021/06/06 01:42:33;;;;;;;;;;;;;;;20.34;66.89;99758.34;4284877;33;33244;-89
2021/06/06 01:45:08;;;;;;;;;;;;;;;20.39;66.83;99752.09;4265339;33;35519;-88
2021/06/06 01:47:42;;;;;;;;;;;;;;;20.32;67.19;99751.47;4276191;33;34644;-95
2021/06/06 01:50:21;;;;;;;;;;;;;;;20.26;67.31;99754.12;4275387;33;34462;-94
2021/06/06 01:56:08;;;;;;;;;;;;;;;19.94;67.71;99748.41;4225190;33;37473;-94
2021/06/06 01:58:55;;;;;;;;;;;;;;;19.97;67.16;99747.06;4277272;33;34097;-88
2021/06/06 02:01:29;;;;;;;;;;;;;;;20.23;66.28;99749.13;4266586;33;34483;-95
2021/06/06 02:04:09;;;;;;;;;;;;;;;20.25;66.35;99752.47;4306032;33;34520;-88
2021/06/06 02:06:44;;;;;;;;;;;;;;;20.28;66.45;99760.22;4319505;33;36390;-88
2021/06/06 02:09:19;;;;;;;;;;;;;;;20.12;67.27;99758.31;4307069;33;34121;-95
2021/06/06 02:12:04;;;;;;;;;;;;;;;20.17;67.26;99760.28;4298372;33;34594;-95
2021/06/06 02:14:55;;;;;;;;;;;;;;;20.13;66.93;99759.94;4308477;33;34052;-90
2021/06/06 02:17:31;;;;;;;;;;;;;;;20.18;66.57;99757.31;4328971;33;34845;-95
2021/06/06 02:20:27;;;;;;;;;;;;;;;20.33;65.81;99761.34;4122738;33;35347;-88
2021/06/06 02:22:59;;;;;;;;;;;;;;;20.18;66.20;99764.69;4293643;33;34666;-88
2021/06/06 02:25:32;;;;;;;;;;;;;;;20.26;65.82;99759.59;4304760;33;33831;-88
2021/06/06 02:28:25;;;;;;;;;;;;;;;20.16;66.11;99762.19;4303000;33;33365;-95
2021/06/06 02:31:05;;;;;;;;;;;;;;;20.07;66.59;99766.44;4320537;33;35429;-89
2021/06/06 02:33:40;;;;;;;;;;;;;;;20.20;66.29;99763.34;4332877;33;33918;-88
2021/06/06 02:36:15;;;;;;;;;;;;;;;20.20;66.20;99759.78;4319755;33;33957;-88
2021/06/06 02:39:06;;;;;;;;;;;;;;;20.10;66.45;99765.94;4309807;33;33668;-95
2021/06/06 02:42:01;;;;;;;;;;;;;;;20.19;66.20;99767.16;4306159;33;34064;-88
2021/06/06 02:44:44;;;;;;;;;;;;;;;20.01;66.87;99764.69;4290395;33;34059;-94
2021/06/06 02:47:32;;;;;;;;;;;;;;;19.95;67.02;99762.94;4278987;33;33433;-94
2021/06/06 02:50:20;;;;;;;;;;;;;;;19.99;66.88;99764.13;4300697;33;34012;-89
2021/06/06 02:52:58;;;;;;;;;;;;;;;19.96;66.93;99770.09;4295449;33;33940;-89
2021/06/06 02:55:32;;;;;;;;;;;;;;;19.99;66.82;99764.94;4277688;33;33960;-94
2021/06/06 02:58:09;;;;;;;;;;;;;;;19.97;67.10;99771.75;4277298;33;33211;-89
2021/06/06 03:00:43;;;;;;;;;;;;;;;20.03;66.81;99765.25;4287834;33;34724;-89
2021/06/06 03:03:23;;;;;;;;;;;;;;;19.92;67.24;99765.13;4276793;33;35176;-89
2021/06/06 03:05:57;;;;;;;;;;;;;;;20.11;66.60;99771.16;4288724;33;33839;-88
2021/06/06 03:08:30;;;;;;;;;;;;;;;20.17;66.08;99774.84;4287900;33;33204;-93
2021/06/06 03:11:04;;;;;;;;;;;;;;;20.27;65.61;99776.91;4287969;33;33637;-95
2021/06/06 03:13:40;;;;;;;;;;;;;;;20.15;66.07;99778.91;4275058;33;34345;-88
2021/06/06 03:16:13;;;;;;;;;;;;;;;20.16;66.14;99778.66;4280236;33;36406;-88
2021/06/06 03:18:47;;;;;;;;;;;;;;;20.11;66.61;99781.31;4274300;33;33516;-88
2021/06/06 03:21:22;;;;;;;;;;;;;;;20.17;66.35;99777.56;4289562;33;34814;-88
2021/06/06 03:23:57;;;;;;;;;;;;;;;20.17;66.57;99776.75;4289112;33;35860;-96
2021/06/06 03:26:43;;;;;;;;;;;;;;;19.99;67.35;99781.41;4298560;33;32515;-96
2021/06/06 03:29:30;;;;;;;;;;;;;;;19.97;67.18;99788.22;4294434;33;32164;-96
2021/06/06 03:35:26;;;;;;;;;;;;;;;20.04;65.63;99780.66;4221565;33;36237;-89
2021/06/06 03:37:59;;;;;;;;;;;;;;;20.21;65.25;99775.16;4275517;33;35122;-89
2021/06/06 03:40:34;;;;;;;;;;;;;;;20.28;64.48;99779.41;4291098;33;33658;-90
2021/06/06 03:43:10;;;;;;;;;;;;;;;20.35;63.21;99783.91;4303338;33;34640;-93
2021/06/06 03:45:43;;;;;;;;;;;;;;;20.45;64.17;99782.13;4290393;33;34241;-89
2021/06/06 03:48:17;;;;;;;;;;;;;;;20.39;63.63;99785.88;4277133;33;34700;-93
2021/06/06 03:50:52;;;;;;;;;;;;;;;20.51;63.29;99783.03;4276667;33;33454;-94
2021/06/06 03:53:26;;;;;;;;;;;;;;;20.40;63.46;99792.19;4276852;33;32793;-93
2021/06/06 03:56:00;;;;;;;;;;;;;;;20.58;63.15;99788.34;4264208;33;34453;-93
2021/06/06 03:58:34;;;;;;;;;;;;;;;20.52;63.33;99790.16;4276563;33;34003;-88
2021/06/06 04:01:07;;;;;;;;;;;;;;;20.62;62.56;99795.81;4289211;33;33598;-94
2021/06/06 04:03:59;;;;;;;;;;;;;;;20.65;62.62;99794.50;4275950;33;33208;-89
2021/06/06 04:07:00;;;;;;;;;;;;;;;20.63;60.78;99797.50;4246192;33;36806;-89
2021/06/06 04:09:33;;;;;;;;;;;;;;;20.87;60.36;99802.78;4289193;33;33948;-92
2021/06/06 04:12:08;;;;;;;;;;;;;;;21.02;60.49;99804.91;4276145;33;31937;-89
2021/06/06 04:14:43;;;;;;;;;;;;;;;20.68;59.64;99805.00;4273071;33;33549;-94
2021/06/06 04:17:15;;;;;;;;;;;;;;;20.94;60.82;99814.44;4290267;33;34942;-94
2021/06/06 04:20:08;;;;;;;;;;;;;;;20.79;59.89;99811.47;4228718;33;35587;-94
2021/06/06 04:22:42;;;;;;;;;;;;;;;20.75;60.61;99815.81;4278236;33;33108;-94
2021/06/06 04:25:16;;;;;;;;;;;;;;;21.10;60.34;99818.19;4288903;33;34290;-94
2021/06/06 04:28:10;;;;;;;;;;;;;;;20.83;59.63;99815.38;4299598;33;37456;-94
2021/06/06 04:31:08;;;;;;;;;;;;;;;20.68;59.65;99812.41;4291287;33;33198;-88
2021/06/06 04:33:40;;;;;;;;;;;;;;;20.40;61.14;99823.19;4299043;33;33601;-90
2021/06/06 04:36:14;;;;;;;;;;;;;;;20.33;60.81;99817.06;4275391;33;34761;-89
2021/06/06 04:38:46;;;;;;;;;;;;;;;20.62;60.81;99817.78;4277292;33;34567;-96
2021/06/06 04:41:35;;;;;;;;;;;;;;;20.99;59.96;99813.66;4285204;33;33446;-94
2021/06/06 04:44:19;;;;;;;;;;;;;;;21.26;59.00;99813.72;4277924;33;31841;-87
2021/06/06 04:46:53;;;;;;;;;;;;;;;21.44;59.07;99811.75;4287356;33;33756;-87
2021/06/06 04:49:26;;;;;;;;;;;;;;;21.42;59.20;99819.38;4289899;33;33948;-95
2021/06/06 04:52:03;;;;;;;;;;;;;;;21.30;58.20;99814.03;4271571;33;34152;-96
2021/06/06 04:55:12;;;;;;;;;;;;;;;21.27;58.48;99818.16;4194640;33;34326;-95
2021/06/06 04:58:01;;;;;;;;;;;;;;;21.69;56.97;99817.53;4306486;33;34340;-95
2021/06/06 05:00:46;;;;;;;;;;;;;;;21.44;56.99;99826.31;4295371;33;33131;-95
2021/06/06 05:03:57;;;;;;;;;;;;;;;21.66;57.19;99826.31;4289762;33;34691;-88
2021/06/06 05:06:30;;;;;;;;;;;;;;;;;;4306123;33;33771;-88
2021/06/06 05:09:03;;;;;;;;;;;;;;;22.05;57.05;99828.03;4315789;33;34786;-89
2021/06/06 05:11:37;;;;;;;;;;;;;;;21.80;56.19;99836.91;4303745;33;33947;-88
2021/06/06 05:14:11;;;;;;;;;;;;;;;22.07;55.69;99830.56;4275330;33;32126;-89
2021/06/06 05:16:45;;;;;;;;;;;;;;;21.76;55.91;99835.75;4290297;33;32854;-90
2021/06/06 05:19:18;;;;;;;;;;;;;;;21.95;56.52;99842.53;4266456;33;33953;-90
2021/06/06 05:21:52;;;;;;;;;;;;;;;22.10;55.88;99832.78;4288985;33;34935;-89
2021/06/06 05:24:25;;;;;;;;;;;;;;;21.25;57.08;99844.22;4288563;33;33631;-91
2021/06/06 05:26:58;;;;;;;;;;;;;;;21.46;56.24;99848.03;4254108;33;33555;-96
2021/06/06 05:29:32;;;;;;;;;;;;;;;21.69;55.25;99845.03;4266642;33;34536;-90
2021/06/06 05:32:06;;;;;;;;;;;;;;;21.44;56.94;99847.47;4268001;33;33740;-89
2021/06/06 05:34:39;;;;;;;;;;;;;;;21.80;56.18;99845.16;4289338;33;34601;-90
2021/06/06 05:37:13;;;;;;;;;;;;;;;21.51;57.15;99848.97;4278263;33;34089;-89
2021/06/06 05:39:46;;;;;;;;;;;;;;;21.67;56.59;99855.44;4289966;33;34024;-90
2021/06/06 05:42:18;;;;;;;;;;;;;;;21.47;56.67;99852.47;4267516;33;33296;-89
2021/06/06 05:44:51;;;;;;;;;;;;;;;21.38;56.32;99851.22;4290260;33;34558;-94
2021/06/06 05:50:53;;;;;;;;;;;;;;;21.34;57.31;99859.16;4133583;33;36285;-95
2021/06/06 05:53:28;;;;;;;;;;;;;;;20.93;57.90;99862.19;4281723;33;34435;-92
2021/06/06 05:56:01;;;;;;;;;;;;;;;21.44;56.99;99862.03;4292103;33;34261;-91
2021/06/06 05:58:34;;;;;;;;;;;;;;;21.82;56.72;99859.47;4277324;33;34639;-96
2021/06/06 06:01:10;;;;;;;;;;;;;;;21.56;56.64;99856.44;4281489;33;34862;-91
2021/06/06 06:03:42;;;;;;;;;;;;;;;21.59;56.59;99857.84;4282175;33;34795;-91
2021/06/06 06:06:16;;;;;;;;;;;;;;;21.66;56.01;99859.31;4291981;33;33733;-95
2021/06/06 06:09:05;;;;;;;;;;;;;;;22.04;55.81;99864.91;4292447;33;33788;-95
2021/06/06 06:11:38;;;;;;;;;;;;;;;22.53;54.71;99855.72;4267136;33;34382;-90
2021/06/06 06:14:12;;;;;;;;;;;;;;;22.35;54.37;99849.53;4266476;33;34569;-96
2021/06/06 06:16:44;;;;;;;;;;;;;;;21.82;55.02;99845.72;4274293;33;34374;-91
2021/06/06 06:19:18;;;;;;;;;;;;;;;22.31;55.07;99853.06;4290403;33;34533;-95
2021/06/06 06:21:50;;;;;;;;;;;;;;;22.29;53.92;99850.56;4289646;33;35207;-96
2021/06/06 06:24:35;;;;;;;;;;;;;;;22.18;55.81;99855.13;4279403;33;34802;-94
2021/06/06 06:27:10;;;;;;;;;;;;;;;22.51;54.92;99847.72;4294506;33;33940;-91
2021/06/06 06:29:44;;;;;;;;;;;;;;;22.54;54.47;99846.34;4304513;33;33215;-96
2021/06/06 06:32:21;;;;;;;;;;;;;;;22.59;53.90;99851.94;4314138;33;33569;-96
2021/06/06 06:35:01;;;;;;;;;;;;;;;22.58;54.07;99846.69;4293355;33;33905;-95
2021/06/06 06:37:50;;;;;;;;;;;;;;;22.18;53.96;99851.56;4268552;33;35684;-95
2021/06/06 06:40:30;;;;;;;;;;;;;;;22.50;53.47;99851.56;4301415;33;33621;-92
2021/06/06 06:43:04;;;;;;;;;;;;;;;22.64;54.69;99854.69;4300683;33;33177;-92
2021/06/06 06:45:37;;;;;;;;;;;;;;;22.82;52.95;99855.38;4306373;33;33950;-91
2021/06/06 06:48:12;;;;;;;;;;;;;;;22.56;53.67;99855.22;4305657;33;34507;-94
2021/06/06 06:50:58;;;;;;;;;;;;;;;22.72;53.38;99862.47;4304014;33;33438;-96
2021/06/06 06:53:34;;;;;;;;;;;;;;;22.86;51.30;99859.22;4291425;33;34369;-96
2021/06/06 06:56:19;;;;;;;;;;;;;;;22.75;51.70;99869.38;4306651;33;34997;-91
2021/06/06 06:58:53;;;;;;;;;;;;;;;23.20;52.12;99861.66;4306813;33;33617;-96
2021/06/06 07:01:57;;;;;;;;;;;;;;;23.09;51.61;99864.37;4267346;33;35070;-96
2021/06/06 07:04:33;;;;;;;;;;;;;;;22.77;51.00;99864.44;4288303;33;34936;-96
2021/06/06 07:07:19;;;;;;;;;;;;;;;23.04;53.02;99864.31;4282204;33;34969;-91
2021/06/06 07:09:52;;;;;;;;;;;;;;;23.20;51.91;99861.66;4292326;33;33555;-90
2021/06/06 07:12:25;;;;;;;;;;;;;;;22.82;54.21;99863.63;4283264;33;33284;-91
2021/06/06 07:14:58;;;;;;;;;;;;;;;23.34;52.96;99868.34;4272162;33;33938;-93
2021/06/06 07:17:34;;;;;;;;;;;;;;;23.67;52.61;99863.50;4327451;27;34866;-96
2021/06/06 07:20:25;;;;;;;;;;;;;;;23.55;50.60;99862.94;4305889;33;33649;-91
2021/06/06 07:23:04;;;;;;;;;;;;;;;23.65;49.94;99854.66;4313295;33;33561;-90
2021/06/06 07:25:37;;;;;;;;;;;;;;;23.35;50.65;99855.38;4305779;33;33673;-91
2021/06/06 07:28:12;;;;;;;;;;;;;;;23.49;51.83;99851.03;4305282;33;35307;-90
2021/06/06 07:30:47;;;;;;;;;;;;;;;23.72;50.58;99849.72;4305165;33;34413;-91
2021/06/06 07:33:24;;;;;;;;;;;;;;;23.62;51.17;99844.16;4493575;27;32689;-90
2021/06/06 07:36:14;;;;;;;;;;;;;;;23.90;52.25;99847.59;4376770;27;31881;31
2021/06/06 07:39:08;;;;;;;;;;;;;;;23.80;51.41;99840.91;4544382;27;34480;-89
2021/06/06 07:41:43;;;;;;;;;;;;;;;23.75;50.54;99843.66;4381079;27;33890;31
2021/06/06 07:44:18;;;;;;;;;;;;;;;24.04;50.28;99854.25;4317141;33;31558;-94
2021/06/06 07:47:14;;;;;;;;;;;;;;;24.01;49.65;99846.47;4244680;33;36000;-92
2021/06/06 07:49:47;;;;;;;;;;;;;;;24.58;50.77;99849.25;4286423;33;33601;-92
2021/06/06 07:52:41;;;;;;;;;;;;;;;24.36;49.14;99847.63;4328171;27;33984;-96
2021/06/06 07:55:29;;;;;;;;;;;;;;;24.78;49.19;99849.25;4286732;33;32045;-96
2021/06/06 08:01:30;;;;;;;;;;;;;;;25.42;47.92;99857.09;4327640;33;32733;-96
2021/06/06 08:07:28;;;;;;;;;;;;;;;25.48;49.32;99851.25;4684587;27;30912;31
2021/06/06 08:13:33;;;;;;;;;;;;;;;25.64;45.26;99865.81;1491167;27;20312;31
2021/06/06 08:16:24;;;;;;;;;;;;;;;25.75;45.00;99865.78;4433302;27;31816;-95
2021/06/06 08:18:57;;;;;;;;;;;;;;;25.98;42.41;99861.50;4314867;33;33058;-94
2021/06/06 08:25:07;;;;;;;;;;;;;;;26.08;46.38;99869.78;4994601;27;19986;-96
2021/06/06 08:28:10;;;;;;;;;;;;;;;26.51;43.29;99858.91;4482709;27;33879;31
2021/06/06 08:30:49;;;;;;;;;;;;;;;26.47;43.00;99854.22;4267891;33;32045;-89
2021/06/06 08:33:41;;;;;;;;;;;;;;;26.22;41.89;99851.38;4335298;27;33659;31
2021/06/06 08:36:18;;;;;;;;;;;;;;;26.55;41.73;99861.91;4312246;27;34184;-90
2021/06/06 08:38:52;;;;;;;;;;;;;;;26.41;41.25;99861.75;4283513;33;33732;-91
2021/06/06 08:41:52;;;;;;;;;;;;;;;26.80;41.22;99852.56;2526808;27;34086;-91
2021/06/06 08:44:27;;;;;;;;;;;;;;;26.53;41.09;99847.53;4370413;27;32700;-92
2021/06/06 08:47:01;;;;;;;;;;;;;;;26.94;42.46;99842.41;4419381;27;34059;-91
2021/06/06 08:49:49;;;;;;;;;;;;;;;26.71;41.34;99844.03;4320806;33;33480;-96
2021/06/06 08:52:28;;;;;;;;;;;;;;;27.28;42.02;99841.44;4327103;27;31996;-89
2021/06/06 08:55:19;;;;;;;;;;;;;;;27.23;39.52;99846.22;4319036;33;34527;-95
2021/06/06 08:58:00;;;;;;;;;;;;;;;27.35;40.25;99840.28;4316043;33;34082;-94
2021/06/06 09:00:35;;;;;;;;;;;;;;;27.50;42.63;99848.44;4315402;33;34151;-90
2021/06/06 09:03:30;;;;;;;;;;;;;;;27.81;40.99;99846.03;4335723;27;33032;-91
2021/06/06 09:06:35;;;;;;;;;;;;;;;27.67;39.28;99847.91;4309879;28;31740;-96
2021/06/06 09:09:09;;;;;;;;;;;;;;;27.73;39.21;99843.94;4278683;33;34308;-96
2021/06/06 09:12:00;;;;;;;;;;;;;;;27.56;41.44;99840.84;4316974;33;34634;-96
2021/06/06 09:14:41;;;;;;;;;;;;;;;27.53;39.67;99847.84;4305267;33;33761;-95
2021/06/06 09:17:49;;;;;;;;;;;;;;;27.71;38.78;99853.69;4307563;33;34335;-95
2021/06/06 09:20:29;;;;;;;;;;;;;;;27.17;39.96;99844.66;4303229;33;34464;-96
2021/06/06 09:23:22;;;;;;;;;;;;;;;28.06;39.31;99848.78;4316007;33;32800;-96
2021/06/06 09:26:16;;;;;;;;;;;;;;;28.33;38.66;99851.63;4391381;27;32398;-96
2021/06/06 09:29:23;;;;;;;;;;;;;;;28.62;39.05;99850.63;4307208;33;31149;-96
2021/06/06 09:32:26;;;;;;;;;;;;;;;29.18;38.44;99853.47;4280945;33;34771;-91
2021/06/06 09:35:05;;;;;;;;;;;;;;;29.44;38.45;99847.41;4315685;33;35399;-96
2021/06/06 09:40:54;;;;;;;;;;;;;;;29.84;36.59;99839.31;4319181;33;34153;-96
2021/06/06 09:44:10;;;;;;;;;;;;;;;;;;;;;
2021/06/06 09:47:07;;;;;;;;;;;;;;;29.82;35.91;99836.84;4332276;27;33195;-96
2021/06/06 09:50:24;;;;;;;;;;;;;;;29.93;36.04;99837.41;1057743;27;32095;-96
2021/06/06 09:53:08;;;;;;;;;;;;;;;29.53;35.84;99839.97;4302220;27;32408;-96
2021/06/06 09:56:09;;;;;;;;;;;;;;;30.34;36.74;99841.97;4264194;33;33482;-96
2021/06/06 09:58:49;;;;;;;;;;;;;;;30.59;33.32;99831.34;4344160;27;35504;-96
2021/06/06 10:01:37;;;;;;;;;;;;;;;30.53;33.21;99840.97;4375862;27;33613;-94
2021/06/06 10:04:19;;;;;;;;;;;;;;;30.81;33.22;99838.84;4275776;33;34158;-96
2021/06/06 10:06:57;;;;;;;;;;;;;;;31.03;34.35;99837.12;4290479;27;34133;-94
2021/06/06 10:10:06;;;;;;;;;;;;;;;30.45;35.17;99837.81;4288133;33;20036;-96
2021/06/06 10:13:00;;;;;;;;;;;;;;;30.95;34.04;99831.16;4290701;33;33857;-93
2021/06/06 10:15:42;;;;;;;;;;;;;;;30.96;33.33;99830.03;4283583;33;37626;-92
2021/06/06 10:18:25;;;;;;;;;;;;;;;31.35;34.21;99838.72;4295135;33;34156;-93
2021/06/06 10:21:01;;;;;;;;;;;;;;;31.37;35.97;99833.63;4258349;33;35176;-92
2021/06/06 10:23:39;;;;;;;;;;;;;;;31.67;34.57;99828.28;4266737;33;34401;-93
2021/06/06 10:26:29;;;;;;;;;;;;;;;31.86;33.32;99823.19;4267788;33;33418;-92
2021/06/06 10:29:34;;;;;;;;;;;;;;;31.67;32.28;99826.31;4328133;27;34440;-92
2021/06/06 10:32:16;;;;;;;;;;;;;;;31.20;33.86;99834.41;4388074;27;34830;-96
2021/06/06 10:34:56;;;;;;;;;;;;;;;31.25;33.00;99819.50;4348045;32;33116;-96
2021/06/06 10:44:19;;;;;;;;;;;;;;;30.84;34.11;99815.03;4491786;27;32652;-91
2021/06/06 10:46:54;;;;;;;;;;;;;;;30.53;34.85;99827.03;4323333;33;33992;-91
2021/06/06 10:49:29;;;;;;;;;;;;;;;31.00;34.00;99819.06;4433117;27;33675;31
2021/06/06 10:55:17;;;;;;;;;;;;;;;30.46;33.99;99816.31;4409346;27;33857;-93
2021/06/06 10:57:52;;;;;;;;;;;;;;;30.09;35.10;99819.19;4407979;27;33835;-93
2021/06/06 11:00:40;;;;;;;;;;;;;;;30.09;34.66;99829.50;4344460;27;33872;-89
2021/06/06 11:03:25;;;;;;;;;;;;;;;29.57;35.24;99818.72;4301624;33;34270;-92
2021/06/06 11:05:59;;;;;;;;;;;;;;;29.68;35.37;99819.31;4295039;33;34968;-90
2021/06/06 11:08:48;;;;;;;;;;;;;;;30.08;36.93;99816.72;4270410;33;978609;-96
2021/06/06 11:12:00;;;;;;;;;;;;;;;30.71;34.52;99816.81;4336378;27;35445;-96
2021/06/06 11:15:19;;;;;;;;;;;;;;;30.03;34.08;99834.37;4373033;27;33841;-92
2021/06/06 11:18:42;;;;;;;;;;;;;;;29.82;35.11;99830.44;4448620;27;33632;-90
2021/06/06 11:21:15;;;;;;;;;;;;;;;30.67;35.01;99819.41;4298871;33;33236;-91
2021/06/06 11:23:58;;;;;;;;;;;;;;;31.07;32.40;99819.44;4327257;28;34659;-90
2021/06/06 11:30:07;;;;;;;;;;;;;;;31.45;31.06;99804.09;4383806;27;35718;-91
2021/06/06 11:32:43;;;;;;;;;;;;;;;31.28;31.51;99799.31;4306192;33;34227;-96
2021/06/06 11:35:25;;;;;;;;;;;;;;;31.11;34.05;99797.28;4325146;27;33218;-96
2021/06/06 11:38:40;;;;;;;;;;;;;;;30.58;34.01;99797.03;4288339;33;33834;-96
2021/06/06 11:41:59;;;;;;;;;;;;;;;30.92;33.65;99806.72;4345169;27;34273;-95
2021/06/06 11:44:58;;;;;;;;;;;;;;;30.91;33.37;99802.25;4342799;33;32371;-93
2021/06/06 11:47:33;;;;;;;;;;;;;;;30.25;33.96;99799.28;4349571;32;35782;-92
2021/06/06 11:50:12;;;;;;;;;;;;;;;30.32;34.13;99794.09;4305784;33;34817;-95
2021/06/06 11:52:48;;;;;;;;;;;;;;;30.38;34.63;99792.00;4328949;33;33581;-91
2021/06/06 11:55:25;;;;;;;;;;;;;;;29.99;34.14;99790.75;4332480;33;33185;-92
2021/06/06 11:58:33;;;;;;;;;;;;;;;30.13;34.75;99783.12;4328640;33;35022;-90
2021/06/06 12:01:23;;;;;;;;;;;;;;;30.02;34.88;99779.81;4273889;33;35054;-91
2021/06/06 12:04:05;;;;;;;;;;;;;;;29.89;35.01;99780.69;4332085;33;34902;-95
2021/06/06 12:06:39;;;;;;;;;;;;;;;29.17;35.05;99771.13;4323602;33;33570;-92
2021/06/06 12:09:15;;;;;;;;;;;;;;;29.85;35.02;99771.31;4296124;33;34962;-96
2021/06/06 12:12:10;;;;;;;;;;;;;;;30.16;34.60;99767.75;4401252;27;34069;-96
2021/06/06 12:15:17;;;;;;;;;;;;;;;30.25;34.57;99765.84;4381774;27;34256;-94
2021/06/06 12:18:31;;;;;;;;;;;;;;;30.26;33.32;99753.56;4307077;33;20016;-96
2021/06/06 12:32:08;;;;;;;;;;;;;;;32.20;32.96;99743.31;4307086;33;20076;-96
2021/06/06 12:35:17;;;;;;;;;;;;;;;33.01;31.32;99742.66;4305903;33;20001;-96
2021/06/06 12:38:03;;;;;;;;;;;;;;;33.17;29.12;99743.69;4275865;33;34731;-95
2021/06/06 12:40:37;;;;;;;;;;;;;;;33.39;28.37;99745.38;4280334;33;32743;-93
2021/06/06 12:43:12;;;;;;;;;;;;;;;33.59;26.81;99735.34;4258193;33;33580;-91
2021/06/06 12:45:45;;;;;;;;;;;;;;;33.98;27.48;99734.34;4285483;33;33957;-92
2021/06/06 12:48:25;;;;;;;;;;;;;;;34.11;27.44;99736.03;4304324;33;33231;-97
2021/06/06 12:51:17;;;;;;;;;;;;;;;34.12;26.92;99741.28;4321381;33;33234;-96
2021/06/06 12:54:37;;;;;;;;;;;;;;;34.17;26.98;99731.84;4308906;33;33811;-96
2021/06/06 12:57:19;;;;;;;;;;;;;;;34.00;27.92;99744.06;4286042;33;35030;-96
2021/06/06 13:00:21;;;;;;;;;;;;;;;;;;;;;
2021/06/06 13:02:56;;;;;;;;;;;;;;;32.93;29.38;99729.53;4298507;33;32447;-96
2021/06/06 13:05:52;;;;;;;;;;;;;;;32.06;30.20;99744.63;4286874;33;32539;-96
2021/06/06 13:08:52;;;;;;;;;;;;;;;31.89;31.99;99749.09;4310951;33;34640;-96
2021/06/06 13:11:38;;;;;;;;;;;;;;;31.66;31.72;99737.25;4294448;33;34880;-96
2021/06/06 13:14:37;;;;;;;;;;;;;;;31.23;32.33;99738.88;4278260;33;33863;-96
2021/06/06 13:17:49;;;;;;;;;;;;;;;31.07;33.17;99741.28;4287230;33;33280;-96
2021/06/06 13:20:58;;;;;;;;;;;;;;;30.51;30.92;99737.31;4309680;33;32803;-96
2021/06/06 13:24:07;;;;;;;;;;;;;;;30.90;30.81;99735.63;4294281;33;34822;-96
2021/06/06 13:26:53;;;;;;;;;;;;;;;31.74;30.19;99742.03;4350281;27;32875;-96
2021/06/06 13:29:58;;;;;;;;;;;;;;;30.95;29.48;99735.50;4328501;27;20048;-90
2021/06/06 13:32:32;;;;;;;;;;;;;;;32.17;29.59;99737.56;4266676;33;34758;-93
2021/06/06 13:35:05;;;;;;;;;;;;;;;32.71;29.87;99726.69;4295231;33;33722;-90
2021/06/06 13:37:39;;;;;;;;;;;;;;;33.42;28.48;99729.91;4293822;33;34786;-96
2021/06/06 13:40:26;;;;;;;;;;;;;;;33.28;27.88;99729.34;4287125;33;33878;-96
2021/06/06 13:42:59;;;;;;;;;;;;;;;33.36;30.26;99739.66;4288411;33;34284;-91
2021/06/06 13:45:32;;;;;;;;;;;;;;;33.12;29.65;99735.50;4297055;33;34068;-90
2021/06/06 13:48:05;;;;;;;;;;;;;;;32.62;29.55;99731.50;4282837;33;34591;-90
2021/06/06 13:50:40;;;;;;;;;;;;;;;31.82;30.09;99735.59;4293524;33;35319;-89
2021/06/06 13:53:15;;;;;;;;;;;;;;;31.71;29.65;99736.28;4291746;33;33543;-91
2021/06/06 13:55:48;;;;;;;;;;;;;;;31.96;30.28;99732.66;4313036;33;35150;-91
2021/06/06 13:58:22;;;;;;;;;;;;;;;31.79;30.69;99739.06;4305896;33;34481;-91
2021/06/06 14:00:54;;;;;;;;;;;;;;;31.59;32.09;99739.72;4304619;33;34065;-90
2021/06/06 14:03:37;;;;;;;;;;;;;;;31.33;32.25;99741.34;4319290;33;34842;-96
2021/06/06 14:06:11;;;;;;;;;;;;;;;31.05;32.23;99738.03;4301463;33;34400;-96
2021/06/06 14:08:58;;;;;;;;;;;;;;;30.65;32.86;99740.00;4293220;33;32900;-92
2021/06/06 14:11:31;;;;;;;;;;;;;;;30.79;34.09;99729.53;4281349;33;33618;-96
2021/06/06 14:14:17;;;;;;;;;;;;;;;30.41;32.97;99736.44;4300395;33;33513;-91
2021/06/06 14:16:50;;;;;;;;;;;;;;;30.56;31.82;99737.19;4299066;33;34981;-96
2021/06/06 14:19:39;;;;;;;;;;;;;;;31.00;33.27;99729.78;4484798;27;856672;-96
2021/06/06 14:22:12;;;;;;;;;;;;;;;31.37;30.06;99721.97;4303103;33;32077;-90
2021/06/06 14:24:46;;;;;;;;;;;;;;;31.89;29.03;99720.31;4316543;33;34677;-96
2021/06/06 14:27:27;;;;;;;;;;;;;;;32.12;28.87;99718.97;4310738;33;33339;-89
2021/06/06 14:30:00;;;;;;;;;;;;;;;32.30;27.56;99721.75;4300054;33;34407;-91
2021/06/06 14:32:33;;;;;;;;;;;;;;;32.41;29.12;99714.59;4299061;33;33406;-91
2021/06/06 14:35:07;;;;;;;;;;;;;;;32.76;27.77;99720.09;4297726;33;34791;-90
2021/06/06 14:37:39;;;;;;;;;;;;;;;33.22;27.52;99714.72;4312544;33;33330;-90
2021/06/06 14:40:13;;;;;;;;;;;;;;;33.75;27.16;99709.53;4309356;33;34031;-92
2021/06/06 14:42:46;;;;;;;;;;;;;;;34.19;25.45;99712.69;4311934;33;32956;-90
2021/06/06 14:45:21;;;;;;;;;;;;;;;34.09;25.66;99701.94;4327873;33;34880;-89
2021/06/06 14:47:53;;;;;;;;;;;;;;;33.59;27.78;99710.16;4310008;33;33819;-91
2021/06/06 14:50:27;;;;;;;;;;;;;;;33.63;26.64;99706.66;4319841;33;35359;-91
2021/06/06 14:53:01;;;;;;;;;;;;;;;33.66;26.94;99717.19;4308897;33;34098;-91
2021/06/06 14:55:34;;;;;;;;;;;;;;;33.29;26.04;99709.41;4301996;33;34428;-96
2021/06/06 14:58:25;;;;;;;;;;;;;;;32.11;27.26;99705.34;4306916;33;35054;-96
2021/06/06 15:01:17;;;;;;;;;;;;;;;32.34;27.53;99703.16;4308222;33;32936;-96